createdAt,value
2022-08-22T00:00:10.714Z,49.89
2022-08-22T00:01:10.863Z,49.89
2022-08-22T00:02:10.782Z,49.89
2022-08-22T00:02:43.200Z,49.13
2022-08-22T00:02:45.720Z,48.71
2022-08-22T00:02:46.390Z,49.13
2022-08-22T00:02:48.496Z,48.81
2022-08-22T00:02:49.713Z,49.48
2022-08-22T00:02:53.247Z,48.71
2022-08-22T00:03:01.813Z,48.07
2022-08-22T00:03:11.735Z,49.79
2022-08-22T00:04:10.706Z,49.89
2022-08-22T00:05:10.771Z,49.89
2022-08-22T00:06:10.737Z,49.89
2022-08-22T00:07:10.763Z,49.89
2022-08-22T00:08:10.768Z,49.89
2022-08-22T00:09:10.805Z,49.89
2022-08-22T00:10:10.773Z,49.89
2022-08-22T00:11:10.778Z,49.89
2022-08-22T00:12:10.790Z,49.89
2022-08-22T00:13:10.816Z,49.89
2022-08-22T00:14:10.805Z,49.89
2022-08-22T00:15:27.937Z,49.89
2022-08-22T00:16:10.850Z,49.89
2022-08-22T00:17:10.881Z,49.89
2022-08-22T00:18:10.882Z,49.89
2022-08-22T00:19:10.898Z,49.89
2022-08-22T00:20:10.899Z,49.89
2022-08-22T00:21:10.916Z,49.89
2022-08-22T00:22:10.934Z,49.91
2022-08-22T00:23:10.973Z,49.89
2022-08-22T00:24:10.959Z,49.89
2022-08-22T00:25:24.779Z,49.89
2022-08-22T00:26:10.972Z,49.91
2022-08-22T00:27:10.999Z,50.01
2022-08-22T00:28:11.017Z,49.91
2022-08-22T00:29:11.042Z,50.01
2022-08-22T00:30:11.038Z,49.91
2022-08-22T00:31:11.056Z,49.91
2022-08-22T00:32:11.146Z,49.91
2022-08-22T00:33:11.113Z,50.01
2022-08-22T00:34:11.092Z,49.91
2022-08-22T00:35:11.108Z,50.01
2022-08-22T00:36:11.116Z,50.01
2022-08-22T00:37:11.136Z,50.01
2022-08-22T00:38:11.164Z,50.01
2022-08-22T00:39:11.183Z,50.01
2022-08-22T00:40:11.236Z,50.01
2022-08-22T00:41:11.210Z,50.01
2022-08-22T00:42:11.220Z,50.01
2022-08-22T00:43:11.219Z,50.01
2022-08-22T00:44:11.247Z,50.01
2022-08-22T00:45:11.288Z,50.01
2022-08-22T00:46:11.269Z,49.91
2022-08-22T00:47:11.293Z,50.01
2022-08-22T00:48:11.313Z,50.01
2022-08-22T00:49:11.344Z,50.01
2022-08-22T00:50:11.333Z,50.01
2022-08-22T00:51:11.344Z,49.91
2022-08-22T00:52:11.384Z,49.91
2022-08-22T00:53:11.412Z,50.01
2022-08-22T00:54:18.008Z,50.01
2022-08-22T00:55:11.461Z,50.01
2022-08-22T00:56:11.490Z,50.01
2022-08-22T00:57:11.485Z,50.01
2022-08-22T00:58:11.518Z,50.01
2022-08-22T00:59:23.313Z,50.01
2022-08-22T01:00:11.579Z,50.01
2022-08-22T01:01:11.629Z,50.01
2022-08-22T01:02:11.557Z,50.01
2022-08-22T01:03:11.596Z,50.01
2022-08-22T01:04:11.631Z,50.01
2022-08-22T01:05:11.641Z,50.01
2022-08-22T01:06:11.664Z,50.01
2022-08-22T01:07:11.699Z,50.01
2022-08-22T01:08:11.718Z,50.01
2022-08-22T01:09:11.700Z,50.01
2022-08-22T01:10:11.738Z,50.01
2022-08-22T01:11:11.779Z,50.01
2022-08-22T01:12:11.758Z,50.01
2022-08-22T01:13:11.767Z,50.01
2022-08-22T01:14:11.790Z,50.01
2022-08-22T01:15:11.835Z,50.01
2022-08-22T01:16:11.813Z,50.01
2022-08-22T01:17:11.835Z,50.01
2022-08-22T01:18:11.893Z,50.01
2022-08-22T01:19:11.861Z,50.01
2022-08-22T01:20:11.882Z,50.01
2022-08-22T01:21:11.905Z,50.01
2022-08-22T01:22:11.918Z,50.01
2022-08-22T01:23:11.935Z,50.01
2022-08-22T01:24:11.963Z,50.01
2022-08-22T01:25:12.001Z,50.01
2022-08-22T01:26:11.973Z,50.01
2022-08-22T01:27:11.997Z,50.01
2022-08-22T01:28:11.997Z,50.01
2022-08-22T01:29:11.996Z,50.01
2022-08-22T01:30:12.005Z,50.01
2022-08-22T01:31:12.046Z,50.01
2022-08-22T01:32:12.047Z,50.01
2022-08-22T01:33:12.083Z,50.01
2022-08-22T01:34:13.026Z,50.01
2022-08-22T01:35:12.116Z,50.01
2022-08-22T01:36:12.140Z,50.01
2022-08-22T01:37:12.171Z,50.01
2022-08-22T01:38:12.192Z,50.01
2022-08-22T01:39:12.217Z,50.01
2022-08-22T01:40:12.331Z,50.12
2022-08-22T01:41:12.263Z,50.01
2022-08-22T01:42:12.275Z,50.01
2022-08-22T01:43:12.279Z,50.01
2022-08-22T01:44:12.308Z,50.01
2022-08-22T01:45:12.327Z,50.12
2022-08-22T01:46:12.308Z,50.12
2022-08-22T01:47:12.328Z,50.12
2022-08-22T01:48:12.358Z,50.12
2022-08-22T01:49:12.389Z,50.12
2022-08-22T01:50:12.409Z,50.12
2022-08-22T01:51:12.426Z,50.12
2022-08-22T01:52:12.466Z,50.12
2022-08-22T01:53:12.481Z,50.12
2022-08-22T01:54:12.498Z,50.12
2022-08-22T01:55:12.515Z,50.12
2022-08-22T01:56:12.540Z,50.13
2022-08-22T01:57:12.561Z,50.13
2022-08-22T01:58:12.588Z,50.13
2022-08-22T01:59:12.579Z,50.12
2022-08-22T02:00:12.617Z,50.12
2022-08-22T02:01:12.743Z,50.12
2022-08-22T02:02:12.629Z,50.12
2022-08-22T02:03:12.639Z,50.12
2022-08-22T02:04:12.652Z,50.13
2022-08-22T02:05:12.678Z,50.13
2022-08-22T02:06:14.444Z,50.12
2022-08-22T02:07:12.690Z,50.13
2022-08-22T02:08:12.729Z,50.13
2022-08-22T02:09:12.717Z,50.13
2022-08-22T02:10:12.731Z,50.13
2022-08-22T02:11:12.749Z,50.13
2022-08-22T02:12:21.440Z,50.13
2022-08-22T02:13:12.824Z,50.13
2022-08-22T02:14:12.794Z,50.13
2022-08-22T02:15:12.818Z,50.13
2022-08-22T02:16:12.826Z,50.13
2022-08-22T02:17:12.810Z,50.13
2022-08-22T02:18:12.835Z,50.13
2022-08-22T02:19:12.844Z,50.13
2022-08-22T02:20:12.871Z,50.13
2022-08-22T02:21:12.886Z,50.13
2022-08-22T02:22:12.921Z,50.13
2022-08-22T02:23:12.895Z,50.13
2022-08-22T02:24:12.881Z,50.13
2022-08-22T02:25:12.920Z,50.13
2022-08-22T02:26:12.932Z,50.13
2022-08-22T02:27:12.959Z,50.13
2022-08-22T02:28:12.986Z,50.13
2022-08-22T02:29:13.007Z,50.13
2022-08-22T02:30:13.040Z,50.13
2022-08-22T02:31:15.254Z,50.13
2022-08-22T02:32:13.068Z,50.13
2022-08-22T02:33:13.072Z,50.13
2022-08-22T02:34:13.055Z,50.13
2022-08-22T02:35:13.166Z,50.13
2022-08-22T02:36:13.077Z,50.13
2022-08-22T02:37:13.096Z,50.13
2022-08-22T02:38:13.127Z,50.13
2022-08-22T02:39:13.139Z,50.13
2022-08-22T02:40:13.228Z,50.13
2022-08-22T02:41:13.176Z,50.13
2022-08-22T02:42:13.210Z,50.13
2022-08-22T02:43:13.241Z,50.13
2022-08-22T02:44:13.255Z,50.13
2022-08-22T02:45:13.287Z,50.13
2022-08-22T02:46:13.330Z,50.13
2022-08-22T02:47:13.310Z,50.13
2022-08-22T02:48:13.312Z,50.24
2022-08-22T02:49:13.295Z,50.24
2022-08-22T02:50:13.333Z,50.13
2022-08-22T02:51:13.351Z,50.13
2022-08-22T02:52:13.384Z,50.13
2022-08-22T02:53:13.401Z,50.13
2022-08-22T02:54:13.416Z,50.13
2022-08-22T02:55:13.428Z,50.13
2022-08-22T02:56:13.439Z,50.13
2022-08-22T02:57:14.553Z,50.13
2022-08-22T02:58:13.530Z,50.13
2022-08-22T02:59:13.492Z,50.13
2022-08-22T03:00:32.146Z,50.24
2022-08-22T03:01:13.555Z,50.13
2022-08-22T03:02:13.537Z,50.13
2022-08-22T03:03:13.574Z,50.13
2022-08-22T03:04:13.546Z,50.13
2022-08-22T03:05:13.576Z,50.13
2022-08-22T03:06:13.585Z,50.13
2022-08-22T03:07:13.590Z,50.13
2022-08-22T03:08:13.641Z,50.13
2022-08-22T03:09:13.617Z,50.24
2022-08-22T03:10:13.641Z,50.24
2022-08-22T03:11:13.655Z,50.24
2022-08-22T03:12:13.678Z,50.24
2022-08-22T03:13:13.685Z,50.24
2022-08-22T03:14:13.710Z,50.24
2022-08-22T03:15:13.725Z,50.24
2022-08-22T03:16:13.741Z,50.24
2022-08-22T03:17:13.773Z,50.24
2022-08-22T03:18:13.807Z,50.24
2022-08-22T03:19:18.962Z,50.24
2022-08-22T03:20:13.846Z,50.24
2022-08-22T03:21:13.865Z,50.24
2022-08-22T03:22:13.877Z,50.24
2022-08-22T03:23:13.904Z,50.24
2022-08-22T03:24:13.887Z,50.24
2022-08-22T03:25:13.904Z,50.24
2022-08-22T03:26:13.942Z,50.24
2022-08-22T03:27:13.961Z,50.24
2022-08-22T03:28:13.991Z,50.24
2022-08-22T03:29:14.004Z,50.24
2022-08-22T03:30:14.019Z,50.24
2022-08-22T03:31:14.049Z,50.24
2022-08-22T03:32:14.087Z,50.24
2022-08-22T03:33:14.097Z,50.24
2022-08-22T03:34:14.102Z,50.24
2022-08-22T03:35:14.112Z,50.24
2022-08-22T03:36:14.144Z,50.24
2022-08-22T03:37:14.175Z,50.24
2022-08-22T03:38:14.167Z,50.24
2022-08-22T03:39:17.309Z,50.24
2022-08-22T03:40:14.241Z,50.24
2022-08-22T03:41:14.167Z,50.24
2022-08-22T03:42:14.210Z,50.24
2022-08-22T03:43:14.214Z,50.24
2022-08-22T03:44:14.243Z,50.24
2022-08-22T03:45:14.262Z,50.24
2022-08-22T03:46:14.271Z,50.24
2022-08-22T03:47:14.289Z,50.24
2022-08-22T03:48:14.314Z,50.24
2022-08-22T03:49:14.338Z,50.24
2022-08-22T03:50:14.305Z,50.24
2022-08-22T03:51:14.323Z,50.24
2022-08-22T03:52:14.332Z,50.24
2022-08-22T03:53:18.677Z,50.24
2022-08-22T03:54:14.376Z,50.24
2022-08-22T03:55:14.373Z,50.34
2022-08-22T03:56:14.404Z,50.24
2022-08-22T03:57:14.413Z,50.26
2022-08-22T03:58:17.148Z,50.36
2022-08-22T03:59:14.437Z,50.24
2022-08-22T04:00:14.475Z,50.26
2022-08-22T04:01:14.606Z,50.26
2022-08-22T04:02:42.308Z,50.26
2022-08-22T04:03:14.524Z,50.34
2022-08-22T04:04:14.554Z,50.36
2022-08-22T04:05:14.565Z,50.26
2022-08-22T04:06:14.571Z,50.26
2022-08-22T04:07:28.416Z,50.26
2022-08-22T04:08:14.579Z,50.26
2022-08-22T04:09:14.589Z,50.26
2022-08-22T04:10:14.610Z,50.26
2022-08-22T04:11:14.633Z,50.26
2022-08-22T04:12:14.614Z,50.26
2022-08-22T04:13:14.664Z,50.26
2022-08-22T04:14:14.637Z,50.26
2022-08-22T04:15:14.660Z,50.36
2022-08-22T04:16:14.678Z,50.36
2022-08-22T04:17:14.700Z,50.36
2022-08-22T04:18:14.686Z,50.26
2022-08-22T04:19:14.720Z,50.26
2022-08-22T04:20:16.692Z,50.26
2022-08-22T04:21:14.743Z,50.26
2022-08-22T04:22:14.757Z,50.26
2022-08-22T04:23:14.762Z,50.26
2022-08-22T04:24:14.771Z,50.26
2022-08-22T04:25:14.777Z,50.36
2022-08-22T04:26:14.795Z,50.36
2022-08-22T04:27:14.850Z,50.36
2022-08-22T04:28:14.820Z,50.36
2022-08-22T04:29:14.864Z,50.26
2022-08-22T04:30:14.884Z,50.26
2022-08-22T04:31:14.908Z,50.36
2022-08-22T04:32:14.937Z,50.36
2022-08-22T04:33:14.923Z,50.36
2022-08-22T04:34:14.928Z,50.36
2022-08-22T04:35:14.948Z,50.26
2022-08-22T04:36:14.978Z,50.36
2022-08-22T04:37:14.962Z,50.36
2022-08-22T04:38:14.962Z,50.36
2022-08-22T04:39:14.960Z,50.26
2022-08-22T04:40:15.091Z,50.26
2022-08-22T04:41:15.011Z,50.26
2022-08-22T04:42:32.407Z,50.36
2022-08-22T04:43:15.023Z,50.36
2022-08-22T04:44:15.028Z,50.26
2022-08-22T04:45:15.065Z,50.36
2022-08-22T04:46:15.053Z,50.26
2022-08-22T04:47:15.068Z,50.26
2022-08-22T04:48:15.095Z,50.26
2022-08-22T04:49:15.177Z,50.26
2022-08-22T04:50:15.163Z,50.26
2022-08-22T04:51:15.364Z,50.26
2022-08-22T04:52:15.134Z,50.26
2022-08-22T04:53:15.154Z,50.26
2022-08-22T04:54:15.178Z,50.26
2022-08-22T04:55:15.201Z,50.26
2022-08-22T04:56:15.219Z,50.26
2022-08-22T04:57:15.201Z,50.26
2022-08-22T04:58:15.211Z,50.26
2022-08-22T04:59:15.231Z,50.26
2022-08-22T05:00:15.228Z,50.16
2022-08-22T05:02:41.131Z,50.26
2022-08-22T05:03:44.889Z,50.26
2022-08-22T05:04:41.164Z,50.16
2022-08-22T05:05:41.197Z,50.26
2022-08-22T05:06:41.179Z,50.26
2022-08-22T05:07:41.212Z,50.16
2022-08-22T05:08:41.263Z,50.16
2022-08-22T05:09:41.261Z,50.16
2022-08-22T05:10:41.292Z,50.16
2022-08-22T05:11:41.293Z,50.16
2022-08-22T05:12:41.316Z,50.16
2022-08-22T05:13:41.340Z,50.16
2022-08-22T05:14:41.357Z,50.16
2022-08-22T05:15:41.320Z,50.16
2022-08-22T05:16:41.305Z,50.16
2022-08-22T05:17:41.363Z,50.16
2022-08-22T05:18:41.360Z,50.16
2022-08-22T05:19:41.406Z,50.16
2022-08-22T05:20:41.409Z,50.16
2022-08-22T05:21:41.421Z,50.16
2022-08-22T05:22:41.467Z,50.06
2022-08-22T05:23:41.486Z,50.06
2022-08-22T05:24:41.516Z,50.06
2022-08-22T05:25:41.517Z,50.16
2022-08-22T05:26:41.569Z,50.06
2022-08-22T05:27:41.616Z,50.06
2022-08-22T05:28:41.591Z,50.06
2022-08-22T05:29:41.599Z,50.16
2022-08-22T05:30:41.629Z,50.06
2022-08-22T05:31:41.639Z,50.06
2022-08-22T05:32:41.663Z,50.06
2022-08-22T05:33:41.693Z,50.06
2022-08-22T05:34:41.702Z,50.06
2022-08-22T05:35:44.905Z,50.06
2022-08-22T05:36:41.744Z,50.06
2022-08-22T05:37:42.431Z,50.06
2022-08-22T05:38:41.747Z,50.06
2022-08-22T05:39:41.855Z,50.04
2022-08-22T05:40:41.798Z,50.04
2022-08-22T05:41:41.799Z,50.04
2022-08-22T05:42:41.832Z,50.04
2022-08-22T05:43:41.823Z,49.94
2022-08-22T05:44:41.864Z,50.04
2022-08-22T05:45:41.906Z,49.94
2022-08-22T05:46:41.913Z,50.04
2022-08-22T05:47:41.915Z,50.04
2022-08-22T05:48:41.953Z,49.94
2022-08-22T05:49:41.954Z,49.94
2022-08-22T05:50:41.987Z,49.94
2022-08-22T05:51:42.018Z,49.94
2022-08-22T05:52:42.041Z,49.94
2022-08-22T05:53:42.086Z,49.94
2022-08-22T05:54:42.071Z,49.94
2022-08-22T05:55:42.084Z,49.94
2022-08-22T05:56:42.097Z,49.94
2022-08-22T05:57:42.108Z,49.94
2022-08-22T05:58:42.139Z,49.94
2022-08-22T05:59:42.159Z,49.94
2022-08-22T06:00:42.157Z,49.94
2022-08-22T06:01:42.239Z,49.94
2022-08-22T06:02:42.200Z,49.84
2022-08-22T06:03:42.224Z,49.84
2022-08-22T06:04:42.260Z,49.84
2022-08-22T06:05:42.273Z,49.84
2022-08-22T06:06:42.303Z,49.84
2022-08-22T06:07:42.319Z,49.84
2022-08-22T06:08:42.353Z,49.84
2022-08-22T06:09:42.338Z,49.84
2022-08-22T06:10:42.377Z,49.84
2022-08-22T06:11:42.392Z,49.84
2022-08-22T06:12:43.243Z,49.84
2022-08-22T06:13:42.415Z,49.84
2022-08-22T06:14:42.451Z,49.84
2022-08-22T06:15:42.492Z,49.84
2022-08-22T06:16:48.118Z,49.84
2022-08-22T06:17:42.498Z,49.84
2022-08-22T06:18:42.492Z,49.84
2022-08-22T06:19:42.518Z,49.84
2022-08-22T06:20:42.542Z,49.84
2022-08-22T06:21:42.499Z,49.74
2022-08-22T06:22:42.531Z,49.74
2022-08-22T06:23:42.568Z,49.74
2022-08-22T06:24:42.554Z,49.74
2022-08-22T06:25:42.534Z,49.74
2022-08-22T06:26:45.203Z,49.74
2022-08-22T06:27:42.566Z,49.74
2022-08-22T06:28:55.452Z,49.74
2022-08-22T06:29:42.617Z,49.74
2022-08-22T06:30:42.597Z,49.74
2022-08-22T06:31:42.617Z,49.74
2022-08-22T06:32:44.578Z,49.74
2022-08-22T06:33:45.786Z,49.74
2022-08-22T06:34:42.672Z,49.74
2022-08-22T06:35:42.693Z,49.74
2022-08-22T06:36:42.716Z,49.74
2022-08-22T06:37:42.751Z,49.74
2022-08-22T06:38:42.788Z,49.74
2022-08-22T06:39:42.905Z,49.74
2022-08-22T06:40:42.811Z,49.74
2022-08-22T06:41:42.852Z,49.74
2022-08-22T06:42:42.876Z,49.74
2022-08-22T06:43:42.900Z,49.74
2022-08-22T06:44:42.931Z,49.64
2022-08-22T06:45:42.934Z,49.64
2022-08-22T06:46:42.935Z,49.64
2022-08-22T06:47:43.461Z,49.64
2022-08-22T06:48:42.929Z,49.64
2022-08-22T06:49:42.937Z,49.64
2022-08-22T06:50:42.963Z,49.64
2022-08-22T06:51:42.952Z,49.64
2022-08-22T06:52:43.002Z,49.64
2022-08-22T06:53:47.809Z,49.64
2022-08-22T06:54:42.950Z,49.64
2022-08-22T06:55:42.971Z,49.64
2022-08-22T06:56:42.994Z,49.64
2022-08-22T06:57:43.035Z,49.64
2022-08-22T06:58:43.060Z,49.64
2022-08-22T06:59:43.046Z,49.64
2022-08-22T07:00:43.077Z,49.54
2022-08-22T07:01:43.166Z,49.54
2022-08-22T07:02:43.112Z,49.54
2022-08-22T07:03:43.160Z,49.54
2022-08-22T07:04:43.134Z,49.54
2022-08-22T07:05:43.153Z,49.54
2022-08-22T07:06:43.137Z,49.54
2022-08-22T07:07:43.179Z,49.54
2022-08-22T07:08:43.185Z,49.54
2022-08-22T07:09:43.218Z,49.54
2022-08-22T07:10:43.183Z,49.54
2022-08-22T07:11:43.205Z,49.54
2022-08-22T07:12:43.210Z,49.52
2022-08-22T07:13:43.274Z,49.54
2022-08-22T07:14:43.234Z,49.54
2022-08-22T07:15:43.285Z,49.54
2022-08-22T07:16:43.293Z,49.52
2022-08-22T07:17:43.325Z,49.52
2022-08-22T07:18:43.367Z,49.52
2022-08-22T07:19:43.350Z,49.52
2022-08-22T07:20:43.392Z,49.42
2022-08-22T07:21:43.414Z,49.42
2022-08-22T07:22:43.437Z,49.42
2022-08-22T07:23:43.470Z,49.42
2022-08-22T07:24:43.467Z,49.42
2022-08-22T07:25:43.443Z,49.42
2022-08-22T07:26:43.469Z,49.42
2022-08-22T07:27:43.496Z,49.42
2022-08-22T07:28:51.241Z,49.42
2022-08-22T07:29:43.549Z,49.42
2022-08-22T07:30:43.547Z,49.42
2022-08-22T07:31:43.566Z,49.42
2022-08-22T07:32:43.558Z,49.42
2022-08-22T07:33:43.619Z,49.42
2022-08-22T07:34:43.614Z,49.42
2022-08-22T07:35:43.578Z,49.42
2022-08-22T07:36:43.612Z,49.42
2022-08-22T07:37:43.600Z,49.32
2022-08-22T07:38:43.626Z,49.32
2022-08-22T07:39:43.697Z,49.32
2022-08-22T07:40:43.678Z,49.32
2022-08-22T07:41:43.666Z,49.32
2022-08-22T07:42:43.632Z,49.32
2022-08-22T07:43:43.663Z,49.32
2022-08-22T07:44:43.712Z,49.32
2022-08-22T07:45:43.720Z,49.32
2022-08-22T07:46:43.707Z,49.32
2022-08-22T07:47:48.021Z,49.32
2022-08-22T07:48:59.503Z,49.32
2022-08-22T07:49:49.766Z,49.32
2022-08-22T07:50:43.803Z,49.32
2022-08-22T07:51:43.794Z,49.32
2022-08-22T07:52:43.819Z,49.22
2022-08-22T07:53:43.905Z,49.22
2022-08-22T07:54:43.834Z,49.32
2022-08-22T07:55:49.427Z,49.32
2022-08-22T07:56:43.900Z,49.32
2022-08-22T07:57:43.922Z,49.22
2022-08-22T07:58:43.958Z,49.22
2022-08-22T07:59:43.988Z,49.22
2022-08-22T08:00:44.005Z,49.22
2022-08-22T08:01:44.113Z,49.22
2022-08-22T08:02:44.051Z,49.22
2022-08-22T08:03:44.052Z,49.22
2022-08-22T08:04:44.060Z,49.22
2022-08-22T08:05:44.097Z,49.22
2022-08-22T08:06:44.080Z,49.22
2022-08-22T08:07:44.135Z,49.22
2022-08-22T08:08:44.093Z,49.22
2022-08-22T08:09:44.109Z,49.22
2022-08-22T08:10:44.155Z,49.20
2022-08-22T08:11:44.167Z,49.20
2022-08-22T08:12:44.213Z,49.22
2022-08-22T08:13:44.218Z,49.20
2022-08-22T08:14:44.261Z,49.10
2022-08-22T08:15:44.297Z,49.10
2022-08-22T08:16:44.286Z,49.10
2022-08-22T08:17:44.312Z,49.10
2022-08-22T08:18:44.749Z,49.10
2022-08-22T08:19:44.359Z,49.10
2022-08-22T08:20:44.382Z,49.10
2022-08-22T08:21:44.399Z,49.10
2022-08-22T08:22:44.430Z,49.10
2022-08-22T08:23:44.439Z,49.10
2022-08-22T08:24:44.785Z,49.10
2022-08-22T08:25:44.461Z,49.10
2022-08-22T08:26:44.496Z,49.10
2022-08-22T08:27:44.448Z,49.10
2022-08-22T08:28:44.480Z,49.10
2022-08-22T08:29:44.534Z,49.10
2022-08-22T08:30:44.520Z,49.10
2022-08-22T08:31:44.996Z,49.01
2022-08-22T08:32:44.510Z,49.01
2022-08-22T08:33:44.551Z,49.01
2022-08-22T08:34:44.579Z,49.01
2022-08-22T08:36:03.583Z,49.01
2022-08-22T08:36:44.639Z,49.01
2022-08-22T08:37:44.682Z,49.01
2022-08-22T08:38:44.652Z,49.01
2022-08-22T08:39:44.728Z,49.01
2022-08-22T08:40:44.664Z,49.01
2022-08-22T08:41:44.653Z,49.01
2022-08-22T08:42:44.667Z,48.90
2022-08-22T08:43:44.702Z,48.90
2022-08-22T08:44:44.752Z,48.90
2022-08-22T08:45:44.727Z,48.90
2022-08-22T08:46:50.226Z,48.90
2022-08-22T08:47:44.769Z,48.90
2022-08-22T08:48:44.786Z,48.90
2022-08-22T08:49:44.778Z,48.90
2022-08-22T08:50:44.796Z,48.90
2022-08-22T08:51:45.046Z,48.90
2022-08-22T08:52:44.855Z,48.90
2022-08-22T08:53:44.819Z,48.90
2022-08-22T08:54:44.797Z,48.80
2022-08-22T08:55:44.815Z,48.80
2022-08-22T08:57:44.846Z,48.80
2022-08-22T08:58:44.851Z,48.80
2022-08-22T08:59:44.860Z,48.80
2022-08-22T09:00:44.853Z,48.80
2022-08-22T09:01:44.955Z,48.80
2022-08-22T09:02:44.879Z,48.80
2022-08-22T09:03:44.937Z,48.78
2022-08-22T09:04:44.889Z,48.78
2022-08-22T09:05:44.920Z,48.68
2022-08-22T09:06:44.925Z,48.78
2022-08-22T09:07:44.954Z,48.68
2022-08-22T09:08:44.988Z,48.68
2022-08-22T09:09:44.982Z,48.68
2022-08-22T09:10:44.999Z,48.68
2022-08-22T09:11:45.007Z,48.68
2022-08-22T09:12:56.349Z,48.68
2022-08-22T09:13:45.041Z,48.68
2022-08-22T09:14:45.019Z,48.58
2022-08-22T09:15:58.673Z,48.58
2022-08-22T09:16:49.042Z,48.58
2022-08-22T09:17:45.095Z,48.58
2022-08-22T09:18:45.119Z,48.58
2022-08-22T09:19:45.163Z,48.58
2022-08-22T09:20:45.160Z,48.58
2022-08-22T09:21:45.176Z,48.58
2022-08-22T09:22:50.642Z,48.58
2022-08-22T09:23:45.209Z,48.58
2022-08-22T09:24:45.246Z,48.49
2022-08-22T09:25:45.261Z,48.49
2022-08-22T09:26:45.293Z,48.49
2022-08-22T09:27:45.335Z,48.49
2022-08-22T09:28:45.326Z,48.49
2022-08-22T09:29:51.675Z,48.49
2022-08-22T09:30:45.368Z,48.49
2022-08-22T09:31:47.906Z,48.49
2022-08-22T09:32:45.429Z,48.49
2022-08-22T09:33:45.398Z,48.39
2022-08-22T09:34:45.415Z,48.39
2022-08-22T09:35:45.415Z,48.39
2022-08-22T09:36:45.454Z,48.39
2022-08-22T09:37:45.454Z,48.39
2022-08-22T09:38:47.724Z,48.36
2022-08-22T09:39:45.474Z,48.36
2022-08-22T09:40:45.434Z,48.36
2022-08-22T09:41:45.475Z,48.27
2022-08-22T09:42:46.427Z,48.27
2022-08-22T09:43:48.637Z,48.27
2022-08-22T09:44:45.537Z,48.27
2022-08-22T09:45:45.568Z,48.27
2022-08-22T09:46:45.560Z,48.27
2022-08-22T09:47:45.576Z,48.27
2022-08-22T09:48:45.569Z,48.16
2022-08-22T09:49:45.580Z,48.16
2022-08-22T09:50:45.620Z,48.16
2022-08-22T09:51:45.623Z,48.16
2022-08-22T09:52:45.625Z,48.16
2022-08-22T09:53:45.619Z,48.16
2022-08-22T09:54:45.604Z,48.16
2022-08-22T09:55:45.621Z,48.16
2022-08-22T09:56:45.659Z,48.07
2022-08-22T09:57:45.635Z,48.07
2022-08-22T09:58:45.649Z,48.07
2022-08-22T09:59:45.647Z,48.07
2022-08-22T10:00:45.673Z,48.07
2022-08-22T10:01:45.691Z,48.07
2022-08-22T10:02:45.725Z,48.07
2022-08-22T10:03:45.732Z,47.97
2022-08-22T10:04:45.721Z,47.97
2022-08-22T10:05:45.725Z,47.97
2022-08-22T10:06:45.709Z,47.94
2022-08-22T10:07:45.736Z,47.94
2022-08-22T10:08:46.192Z,47.94
2022-08-22T10:09:46.262Z,47.94
2022-08-22T10:10:45.778Z,47.94
2022-08-22T10:11:45.787Z,47.85
2022-08-22T10:12:45.792Z,47.85
2022-08-22T10:13:45.810Z,47.85
2022-08-22T10:14:51.165Z,47.85
2022-08-22T10:15:45.800Z,47.75
2022-08-22T10:16:45.796Z,47.75
2022-08-22T10:17:45.805Z,47.65
2022-08-22T10:18:54.708Z,47.65
2022-08-22T10:19:45.813Z,47.65
2022-08-22T10:20:45.821Z,47.65
2022-08-22T10:21:45.814Z,47.65
2022-08-22T10:22:45.846Z,47.65
2022-08-22T10:23:46.086Z,47.55
2022-08-22T10:24:45.862Z,47.55
2022-08-22T10:25:45.823Z,47.53
2022-08-22T10:26:45.832Z,47.53
2022-08-22T10:27:45.855Z,47.53
2022-08-22T10:28:45.881Z,47.43
2022-08-22T10:29:45.896Z,47.43
2022-08-22T10:30:45.879Z,47.43
2022-08-22T10:31:59.014Z,47.43
2022-08-22T10:32:45.943Z,47.43
2022-08-22T10:33:45.925Z,47.43
2022-08-22T10:34:45.928Z,47.53
2022-08-22T10:35:45.950Z,47.53
2022-08-22T10:36:45.963Z,47.53
2022-08-22T10:37:46.621Z,47.53
2022-08-22T10:38:46.883Z,47.43
2022-08-22T10:39:46.104Z,47.43
2022-08-22T10:40:46.017Z,47.33
2022-08-22T10:41:46.047Z,47.33
2022-08-22T10:42:46.080Z,47.23
2022-08-22T10:43:46.061Z,47.23
2022-08-22T10:44:46.068Z,47.23
2022-08-22T10:45:46.100Z,47.13
2022-08-22T10:46:46.070Z,47.13
2022-08-22T10:47:46.123Z,47.13
2022-08-22T10:48:46.138Z,47.11
2022-08-22T10:49:46.135Z,47.11
2022-08-22T10:50:46.156Z,47.01
2022-08-22T10:51:46.148Z,47.11
2022-08-22T10:52:46.187Z,47.11
2022-08-22T10:53:46.181Z,47.01
2022-08-22T10:54:46.196Z,47.01
2022-08-22T10:55:46.229Z,47.01
2022-08-22T10:56:46.269Z,47.11
2022-08-22T10:57:50.696Z,47.11
2022-08-22T10:58:46.325Z,47.11
2022-08-22T10:59:46.328Z,47.11
2022-08-22T11:00:50.145Z,47.01
2022-08-22T11:01:46.367Z,47.01
2022-08-22T11:02:46.306Z,47.01
2022-08-22T11:03:46.331Z,47.01
2022-08-22T11:04:46.302Z,46.91
2022-08-22T11:05:50.028Z,46.91
2022-08-22T11:06:46.345Z,46.91
2022-08-22T11:07:48.406Z,46.81
2022-08-22T11:08:46.374Z,46.91
2022-08-22T11:09:46.400Z,46.81
2022-08-22T11:10:46.436Z,46.81
2022-08-22T11:11:46.463Z,46.81
2022-08-22T11:12:46.491Z,46.81
2022-08-22T11:13:46.480Z,46.81
2022-08-22T11:14:46.497Z,46.79
2022-08-22T11:15:46.531Z,46.69
2022-08-22T11:16:46.549Z,46.69
2022-08-22T11:17:46.592Z,46.69
2022-08-22T11:18:51.483Z,46.69
2022-08-22T11:19:46.628Z,46.69
2022-08-22T11:20:46.652Z,46.69
2022-08-22T11:21:46.675Z,46.59
2022-08-22T11:22:47.088Z,46.59
2022-08-22T11:23:46.696Z,46.59
2022-08-22T11:24:56.275Z,46.50
2022-08-22T11:25:46.717Z,46.50
2022-08-22T11:26:47.765Z,46.50
2022-08-22T11:27:46.742Z,46.50
2022-08-22T11:28:46.783Z,46.40
2022-08-22T11:29:46.784Z,46.40
2022-08-22T11:30:46.804Z,46.40
2022-08-22T11:31:47.265Z,46.30
2022-08-22T11:32:46.827Z,46.40
2022-08-22T11:33:47.791Z,46.28
2022-08-22T11:34:46.853Z,46.28
2022-08-22T11:35:46.888Z,46.28
2022-08-22T11:36:46.885Z,46.28
2022-08-22T11:37:46.889Z,46.28
2022-08-22T11:38:46.917Z,46.28
2022-08-22T11:39:47.167Z,46.18
2022-08-22T11:40:46.918Z,46.18
2022-08-22T11:41:52.288Z,46.28
2022-08-22T11:42:47.348Z,46.28
2022-08-22T11:43:46.940Z,46.28
2022-08-22T11:44:50.709Z,46.28
2022-08-22T11:45:46.962Z,46.28
2022-08-22T11:46:46.969Z,46.28
2022-08-22T11:47:46.976Z,46.28
2022-08-22T11:48:48.597Z,46.28
2022-08-22T11:49:46.977Z,46.28
2022-08-22T11:50:46.976Z,46.28
2022-08-22T11:51:47.007Z,46.28
2022-08-22T11:52:51.722Z,46.18
2022-08-22T11:53:47.031Z,46.18
2022-08-22T11:54:47.050Z,46.18
2022-08-22T11:55:47.094Z,46.18
2022-08-22T11:56:47.076Z,46.18
2022-08-22T11:57:47.101Z,46.28
2022-08-22T11:58:47.113Z,46.28
2022-08-22T11:59:47.756Z,46.28
2022-08-22T12:00:47.103Z,46.28
2022-08-22T12:01:47.203Z,46.28
2022-08-22T12:02:47.412Z,46.28
2022-08-22T12:03:47.200Z,46.28
2022-08-22T12:04:47.206Z,46.28
2022-08-22T12:05:47.243Z,46.18
2022-08-22T12:06:47.222Z,46.18
2022-08-22T12:07:50.622Z,46.18
2022-08-22T12:08:47.246Z,46.18
2022-08-22T12:09:47.769Z,46.18
2022-08-22T12:10:47.252Z,46.18
2022-08-22T12:11:47.297Z,46.08
2022-08-22T12:12:47.272Z,46.18
2022-08-22T12:13:47.303Z,46.18
2022-08-22T12:14:47.348Z,46.18
2022-08-22T12:15:47.362Z,46.18
2022-08-22T12:16:47.491Z,46.18
2022-08-22T12:17:55.099Z,46.18
2022-08-22T12:18:47.458Z,46.28
2022-08-22T12:20:12.706Z,46.28
2022-08-22T12:20:47.460Z,46.28
2022-08-22T12:21:47.511Z,46.28
2022-08-22T12:22:49.899Z,46.28
2022-08-22T12:23:49.540Z,46.28
2022-08-22T12:24:47.494Z,46.28
2022-08-22T12:25:47.499Z,46.28
2022-08-22T12:26:47.517Z,46.28
2022-08-22T12:27:48.597Z,46.37
2022-08-22T12:28:47.501Z,46.47
2022-08-22T12:29:47.518Z,46.57
2022-08-22T12:30:47.552Z,46.69
2022-08-22T12:31:47.638Z,46.79
2022-08-22T12:32:48.962Z,46.79
2022-08-22T12:33:48.266Z,46.89
2022-08-22T12:34:47.568Z,46.89
2022-08-22T12:35:47.537Z,46.99
2022-08-22T12:36:47.568Z,46.99
2022-08-22T12:37:52.812Z,47.09
2022-08-22T12:38:47.620Z,47.19
2022-08-22T12:39:47.698Z,47.19
2022-08-22T12:40:47.645Z,47.19
2022-08-22T12:41:48.274Z,47.21
2022-08-22T12:42:47.648Z,47.31
2022-08-22T12:43:49.475Z,47.31
2022-08-22T12:44:47.708Z,47.31
2022-08-22T12:45:47.731Z,47.31
2022-08-22T12:46:47.701Z,47.41
2022-08-22T12:47:47.724Z,47.41